createdAt,value
2018-04-16T00:01:03.290Z,12.42
2018-04-16T00:02:13.438Z,12.41
2018-04-16T00:03:23.626Z,12.44
2018-04-16T00:04:33.773Z,12.35
2018-04-16T00:05:44.008Z,12.29
2018-04-16T00:06:54.155Z,12.34
2018-04-16T00:08:04.385Z,12.37
2018-04-16T00:09:14.264Z,12.37
2018-04-16T00:10:24.413Z,12.38
2018-04-16T00:11:34.584Z,12.42
2018-04-16T00:12:44.735Z,12.52
2018-04-16T00:13:54.891Z,12.45
2018-04-16T00:15:05.129Z,12.44
2018-04-16T00:16:15.292Z,12.42
2018-04-16T00:17:25.490Z,12.37
2018-04-16T00:18:35.778Z,12.39
2018-04-16T00:19:46.069Z,12.38
2018-04-16T00:20:56.232Z,12.38
2018-04-16T00:22:06.473Z,12.39
2018-04-16T00:23:16.703Z,12.42
2018-04-16T00:24:26.954Z,12.37
2018-04-16T00:25:37.155Z,12.37
2018-04-16T00:26:47.292Z,12.39
2018-04-16T00:27:57.461Z,12.35
2018-04-16T00:29:07.622Z,12.29
2018-04-16T00:30:17.758Z,12.27
2018-04-16T00:31:27.931Z,12.26
2018-04-16T00:32:38.077Z,12.31
2018-04-16T00:33:48.262Z,12.23
2018-04-16T00:34:58.508Z,12.26
2018-04-16T00:36:08.658Z,12.27
2018-04-16T00:37:18.905Z,12.27
2018-04-16T00:38:28.879Z,12.26
2018-04-16T00:39:39.035Z,12.26
2018-04-16T00:40:49.300Z,12.17
2018-04-16T00:41:59.210Z,12.23
2018-04-16T00:43:09.407Z,12.24
2018-04-16T00:44:19.684Z,12.31
2018-04-16T00:45:29.991Z,12.32
2018-04-16T00:46:40.175Z,12.26
2018-04-16T00:47:50.334Z,12.29
2018-04-16T00:49:00.528Z,12.26
2018-04-16T00:50:10.832Z,12.24
2018-04-16T00:51:21.041Z,12.17
2018-04-16T00:52:31.181Z,12.24
2018-04-16T00:53:41.342Z,12.2
2018-04-16T00:54:51.319Z,12.22
2018-04-16T00:56:01.529Z,12.24
2018-04-16T00:57:11.714Z,12.31
2018-04-16T00:58:21.916Z,12.26
2018-04-16T00:59:31.778Z,12.23
2018-04-16T01:00:41.732Z,12.26
2018-04-16T01:01:51.649Z,12.26
2018-04-16T01:03:01.829Z,12.31
2018-04-16T01:04:12.082Z,12.27
2018-04-16T01:05:22.264Z,12.35
2018-04-16T01:06:32.400Z,12.39
2018-04-16T01:07:42.279Z,12.37
2018-04-16T01:08:52.520Z,12.35
2018-04-16T01:10:02.764Z,12.26
2018-04-16T01:11:12.956Z,12.29
2018-04-16T01:12:23.139Z,12.26
2018-04-16T01:13:33.036Z,12.17
2018-04-16T01:14:43.167Z,12.11
2018-04-16T01:15:53.379Z,12.19
2018-04-16T01:17:03.580Z,12.23
2018-04-16T01:18:13.763Z,12.23
2018-04-16T01:19:23.975Z,12.08
2018-04-16T01:20:34.157Z,12.02
2018-04-16T01:21:44.288Z,12.08
2018-04-16T01:22:54.523Z,12.15
2018-04-16T01:24:04.685Z,12.07
2018-04-16T01:25:15.114Z,12.02
2018-04-16T01:26:25.386Z,12.02
2018-04-16T01:27:35.651Z,12.01
2018-04-16T01:28:45.848Z,11.98
2018-04-16T01:29:56.052Z,11.89
2018-04-16T01:31:06.188Z,11.83
2018-04-16T01:32:16.416Z,11.95
2018-04-16T01:33:26.863Z,11.9
2018-04-16T01:34:37.039Z,11.89
2018-04-16T01:35:47.203Z,11.89
2018-04-16T01:36:57.433Z,11.89
2018-04-16T01:38:07.591Z,11.89
2018-04-16T01:39:17.833Z,11.91
2018-04-16T01:40:27.713Z,11.97
2018-04-16T01:41:37.844Z,11.95
2018-04-16T01:42:47.612Z,12.02
2018-04-16T01:43:57.814Z,11.99
2018-04-16T01:45:07.963Z,11.97
2018-04-16T01:46:18.172Z,11.91
2018-04-16T01:47:28.063Z,11.94
2018-04-16T01:48:38.192Z,11.91
2018-04-16T01:49:48.357Z,11.91
2018-04-16T01:50:58.507Z,11.9
2018-04-16T01:52:08.696Z,11.95
2018-04-16T01:53:18.915Z,11.86
2018-04-16T01:54:29.082Z,11.8
2018-04-16T01:55:39.351Z,11.76
2018-04-16T01:56:49.512Z,11.76
2018-04-16T01:57:59.657Z,11.79
2018-04-16T01:59:09.828Z,11.74
2018-04-16T02:00:19.999Z,11.79
2018-04-16T02:01:29.933Z,11.79
2018-04-16T02:02:40.300Z,11.77
2018-04-16T02:03:50.463Z,11.83
2018-04-16T02:05:00.621Z,11.83
2018-04-16T02:06:10.823Z,11.83
2018-04-16T02:07:21.118Z,11.86
2018-04-16T02:08:31.280Z,11.83
2018-04-16T02:09:41.209Z,11.9
2018-04-16T02:10:51.355Z,11.9
2018-04-16T02:12:01.528Z,11.91
2018-04-16T02:13:11.706Z,11.9
2018-04-16T02:14:21.626Z,11.91
2018-04-16T02:15:31.762Z,12.01
2018-04-16T02:16:41.977Z,11.9
2018-04-16T02:17:52.200Z,11.89
2018-04-16T02:19:02.362Z,11.89
2018-04-16T02:20:12.578Z,11.89
2018-04-16T02:21:22.741Z,11.9
2018-04-16T02:22:32.946Z,11.89
2018-04-16T02:23:43.137Z,11.9
2018-04-16T02:24:53.292Z,11.91
2018-04-16T02:26:03.452Z,11.94
2018-04-16T02:27:13.590Z,11.87
2018-04-16T02:28:23.778Z,11.9
2018-04-16T02:29:33.681Z,11.95
2018-04-16T02:30:43.864Z,11.98
2018-04-16T02:31:54.014Z,12.02
2018-04-16T02:33:04.175Z,11.97
2018-04-16T02:34:14.363Z,12.02
2018-04-16T02:35:24.545Z,12.04
2018-04-16T02:36:34.697Z,11.99
2018-04-16T02:37:45.017Z,12.05
2018-04-16T02:38:55.170Z,12.07
2018-04-16T02:40:05.434Z,12.05
2018-04-16T02:41:15.647Z,11.95
2018-04-16T02:42:25.867Z,11.91
2018-04-16T02:43:36.193Z,11.91
2018-04-16T02:44:46.351Z,11.79
2018-04-16T02:45:56.234Z,11.74
2018-04-16T02:47:06.375Z,11.69
2018-04-16T02:48:16.537Z,11.62
2018-04-16T02:49:26.678Z,11.62
2018-04-16T02:50:36.832Z,11.64
2018-04-16T02:51:47.007Z,11.58
2018-04-16T02:52:57.048Z,11.59
2018-04-16T02:54:07.192Z,11.61
2018-04-16T02:55:17.332Z,11.58
2018-04-16T02:56:27.492Z,11.62
2018-04-16T02:57:37.769Z,11.71
2018-04-16T02:58:47.748Z,11.74
2018-04-16T02:59:57.637Z,11.66
2018-04-16T03:01:07.801Z,11.72
2018-04-16T03:02:17.950Z,11.74
2018-04-16T03:03:28.099Z,11.69
2018-04-16T03:04:38.251Z,11.62
2018-04-16T03:05:48.470Z,11.58
2018-04-16T03:06:58.345Z,11.65
2018-04-16T03:08:08.498Z,11.65
2018-04-16T03:09:18.642Z,11.68
2018-04-16T03:10:28.819Z,11.68
2018-04-16T03:11:38.609Z,11.8
2018-04-16T03:12:48.806Z,11.74
2018-04-16T03:13:58.679Z,11.8
2018-04-16T03:15:08.595Z,11.77
2018-04-16T03:16:18.789Z,11.74
2018-04-16T03:17:28.989Z,11.74
2018-04-16T03:18:38.882Z,11.71
2018-04-16T03:19:49.040Z,11.77
2018-04-16T03:20:59.239Z,11.72
2018-04-16T03:22:09.540Z,11.8
2018-04-16T03:23:19.704Z,11.74
2018-04-16T03:24:29.965Z,11.77
2018-04-16T03:25:40.363Z,11.72
2018-04-16T03:26:50.529Z,11.82
2018-04-16T03:28:00.677Z,11.76
2018-04-16T03:29:10.826Z,11.76
2018-04-16T03:30:21.092Z,11.79
2018-04-16T03:31:31.280Z,11.71
2018-04-16T03:32:41.460Z,11.72
2018-04-16T03:33:51.613Z,11.69
2018-04-16T03:35:01.799Z,11.69
2018-04-16T03:36:11.937Z,11.68
2018-04-16T03:37:22.076Z,11.68
2018-04-16T03:38:32.244Z,11.58
2018-04-16T03:39:42.364Z,11.61
2018-04-16T03:40:52.535Z,11.62
2018-04-16T03:42:02.829Z,11.64
2018-04-16T03:43:12.972Z,11.59
2018-04-16T03:44:23.225Z,11.49
2018-04-16T03:45:33.457Z,11.61
2018-04-16T03:46:43.639Z,11.62
2018-04-16T03:47:53.783Z,11.59
2018-04-16T03:49:03.949Z,11.53
2018-04-16T03:50:14.153Z,11.49
2018-04-16T03:51:24.284Z,11.5
2018-04-16T03:52:34.458Z,11.43
2018-04-16T03:53:44.659Z,11.45
2018-04-16T03:54:54.809Z,11.46
2018-04-16T03:56:04.990Z,11.49
2018-04-16T03:57:15.132Z,11.5
2018-04-16T03:58:25.332Z,11.46
2018-04-16T03:59:35.475Z,11.46
2018-04-16T04:00:45.604Z,11.48
2018-04-16T04:01:55.727Z,11.46
2018-04-16T04:03:05.347Z,11.49
2018-04-16T04:04:15.605Z,11.45
2018-04-16T04:05:25.855Z,11.46
2018-04-16T04:06:36.053Z,11.48
2018-04-16T04:07:45.937Z,11.49
2018-04-16T04:08:56.108Z,11.46
2018-04-16T04:10:06.283Z,11.43
2018-04-16T04:11:16.428Z,11.45
2018-04-16T04:12:26.564Z,11.46
2018-04-16T04:13:36.710Z,11.5
2018-04-16T04:14:46.836Z,11.42
2018-04-16T04:15:56.979Z,11.59
2018-04-16T04:17:07.107Z,11.62
2018-04-16T04:18:17.323Z,11.62
2018-04-16T04:19:27.460Z,11.61
2018-04-16T04:20:37.625Z,11.66
2018-04-16T04:21:47.825Z,11.68
2018-04-16T04:22:58.092Z,11.77
2018-04-16T04:24:08.423Z,11.69
2018-04-16T04:25:18.636Z,11.76
2018-04-16T04:26:28.880Z,11.74
2018-04-16T04:27:38.799Z,11.79
2018-04-16T04:28:48.954Z,11.77
2018-04-16T04:29:59.088Z,11.8
2018-04-16T04:31:09.241Z,11.77
2018-04-16T04:32:19.520Z,11.74
2018-04-16T04:33:29.653Z,11.72
2018-04-16T04:34:39.950Z,11.74
2018-04-16T04:35:50.090Z,11.74
2018-04-16T04:37:00.237Z,11.72
2018-04-16T04:38:10.409Z,11.66
2018-04-16T04:39:20.710Z,11.69
2018-04-16T04:40:30.958Z,11.69
2018-04-16T04:41:41.199Z,11.69
2018-04-16T04:42:51.365Z,11.68
2018-04-16T04:44:01.581Z,11.65
2018-04-16T04:45:11.817Z,11.74
2018-04-16T04:46:22.079Z,11.68
2018-04-16T04:47:32.259Z,11.71
2018-04-16T04:48:42.421Z,11.74
2018-04-16T04:49:52.765Z,11.68
2018-04-16T04:51:02.989Z,11.65
2018-04-16T04:52:13.174Z,11.61
2018-04-16T04:53:23.375Z,11.59
2018-04-16T04:54:33.537Z,11.61
2018-04-16T04:55:43.162Z,11.58
2018-04-16T04:56:53.188Z,11.59
2018-04-16T04:58:03.346Z,11.53
2018-04-16T04:59:13.637Z,11.64
2018-04-16T05:00:23.814Z,11.64
2018-04-16T05:01:33.716Z,11.62
2018-04-16T05:02:43.880Z,11.59
2018-04-16T05:03:54.140Z,11.61
2018-04-16T05:05:04.325Z,11.64
2018-04-16T05:06:14.218Z,11.61
2018-04-16T05:07:24.432Z,11.61
2018-04-16T05:08:34.588Z,11.61
2018-04-16T05:09:44.485Z,11.64
2018-04-16T05:10:54.766Z,11.59
2018-04-16T05:12:05.059Z,11.62
2018-04-16T05:13:14.992Z,11.64
2018-04-16T05:14:25.152Z,11.62
2018-04-16T05:15:35.294Z,11.62
2018-04-16T05:16:45.229Z,11.62
2018-04-16T05:17:55.471Z,11.59
2018-04-16T05:19:05.638Z,11.61
2018-04-16T05:20:15.795Z,11.62
2018-04-16T05:21:25.962Z,11.61
2018-04-16T05:22:36.092Z,11.59
2018-04-16T05:23:46.257Z,11.58
2018-04-16T05:24:56.448Z,11.64
2018-04-16T05:26:06.577Z,11.65
2018-04-16T05:27:16.755Z,11.57
2018-04-16T05:28:26.932Z,11.59
2018-04-16T05:29:37.091Z,11.61
2018-04-16T05:30:47.252Z,11.58
2018-04-16T05:31:57.391Z,11.62
2018-04-16T05:33:07.549Z,11.65
2018-04-16T05:34:17.701Z,11.68
2018-04-16T05:35:27.968Z,11.69
2018-04-16T05:36:38.191Z,11.57
2018-04-16T05:37:48.428Z,11.61
2018-04-16T05:38:58.695Z,11.61
2018-04-16T05:40:08.901Z,11.66
2018-04-16T05:41:19.092Z,11.72
2018-04-16T05:42:29.394Z,11.79
2018-04-16T05:43:39.712Z,11.76
2018-04-16T05:44:49.854Z,11.77
2018-04-16T05:46:00.058Z,11.9
2018-04-16T05:47:10.264Z,11.84
2018-04-16T05:48:20.463Z,11.94
2018-04-16T05:49:30.742Z,11.87
2018-04-16T05:50:40.968Z,11.89
2018-04-16T05:51:51.158Z,12.02
2018-04-16T05:53:01.331Z,11.94
2018-04-16T05:54:11.569Z,11.95
2018-04-16T05:55:21.762Z,11.98
2018-04-16T05:56:31.954Z,11.89
2018-04-16T05:57:42.233Z,11.87
2018-04-16T05:58:52.512Z,11.84
2018-04-16T06:00:02.767Z,11.8
2018-04-16T06:01:12.934Z,11.77
2018-04-16T06:02:23.223Z,11.84
2018-04-16T06:03:33.384Z,11.74
2018-04-16T06:04:43.545Z,11.79
2018-04-16T06:05:53.753Z,11.72
2018-04-16T06:07:03.995Z,11.77
2018-04-16T06:08:14.293Z,11.77
2018-04-16T06:09:24.433Z,11.76
2018-04-16T06:10:34.724Z,11.79
2018-04-16T06:11:44.893Z,11.77
2018-04-16T06:12:55.073Z,11.76
2018-04-16T06:14:05.413Z,11.79
2018-04-16T06:15:15.615Z,11.77
2018-04-16T06:16:25.382Z,11.76
2018-04-16T06:17:35.519Z,11.8
2018-04-16T06:18:45.732Z,11.74
2018-04-16T06:19:55.897Z,11.8
2018-04-16T06:21:06.066Z,11.87
2018-04-16T06:22:15.607Z,11.8
2018-04-16T06:23:25.756Z,11.82
2018-04-16T06:24:35.928Z,11.79
2018-04-16T06:25:46.135Z,11.82
2018-04-16T06:26:56.304Z,11.87
2018-04-16T06:28:06.494Z,11.82
2018-04-16T06:29:16.658Z,11.79
2018-04-16T06:30:26.849Z,11.8
2018-04-16T06:31:37.095Z,11.77
2018-04-16T06:32:47.284Z,11.79
2018-04-16T06:33:57.489Z,11.8
2018-04-16T06:35:07.639Z,11.76
2018-04-16T06:36:17.795Z,11.8
2018-04-16T06:37:27.922Z,11.74
2018-04-16T06:38:38.109Z,11.77
2018-04-16T06:39:48.270Z,11.77
2018-04-16T06:40:58.518Z,11.74
2018-04-16T06:42:08.773Z,11.76
2018-04-16T06:43:18.979Z,11.8
2018-04-16T06:44:29.201Z,11.71
2018-04-16T06:45:39.446Z,11.83
2018-04-16T06:46:49.594Z,11.84
2018-04-16T06:47:59.369Z,11.9
2018-04-16T06:49:09.562Z,11.86
2018-04-16T06:50:19.775Z,11.97
2018-04-16T06:51:29.952Z,12.04
2018-04-16T06:52:40.146Z,12.04
2018-04-16T06:53:50.349Z,12.08
2018-04-16T06:55:00.541Z,12.13
2018-04-16T06:56:10.670Z,12.09
2018-04-16T06:57:20.792Z,12.19
2018-04-16T06:58:31.001Z,12.07
2018-04-16T06:59:40.914Z,12.08
2018-04-16T07:00:51.123Z,12.11
2018-04-16T07:02:01.570Z,12.04
2018-04-16T07:03:11.911Z,12.09
2018-04-16T07:04:22.088Z,12.19
2018-04-16T07:05:31.932Z,12.23
2018-04-16T07:06:42.166Z,12.29
2018-04-16T07:07:52.327Z,12.34
2018-04-16T07:09:02.500Z,12.22
2018-04-16T07:10:12.760Z,12.31
2018-04-16T07:11:22.673Z,12.29
2018-04-16T07:12:32.483Z,12.24
2018-04-16T07:13:42.857Z,12.32
2018-04-16T07:14:53.018Z,12.38
2018-04-16T07:16:03.461Z,12.37
2018-04-16T07:17:13.626Z,12.38
2018-04-16T07:18:23.255Z,12.37
2018-04-16T07:19:33.405Z,12.41
2018-04-16T07:20:43.301Z,12.47
2018-04-16T07:21:53.453Z,12.45
2018-04-16T07:23:03.130Z,12.41
2018-04-16T07:24:13.366Z,12.55
2018-04-16T07:25:23.591Z,12.57
2018-04-16T07:26:33.765Z,12.6
2018-04-16T07:27:43.705Z,12.53
2018-04-16T07:28:53.471Z,12.55
2018-04-16T07:30:03.302Z,12.5
2018-04-16T07:31:13.522Z,12.47
2018-04-16T07:32:23.733Z,12.42
2018-04-16T07:33:33.961Z,12.44
2018-04-16T07:34:44.291Z,12.41
2018-04-16T07:35:54.505Z,12.38
2018-04-16T07:37:04.660Z,12.41
2018-04-16T07:38:14.854Z,12.39
2018-04-16T07:39:24.969Z,12.41
2018-04-16T07:40:35.150Z,12.44
2018-04-16T07:41:45.345Z,12.37
2018-04-16T07:42:55.537Z,12.38
2018-04-16T07:44:05.700Z,12.47
2018-04-16T07:45:15.871Z,12.44
2018-04-16T07:46:25.756Z,12.41
2018-04-16T07:47:35.924Z,12.45
2018-04-16T07:48:45.916Z,12.41
2018-04-16T07:49:55.889Z,12.39
2018-04-16T07:51:06.077Z,12.47
2018-04-16T07:52:16.246Z,12.42
2018-04-16T07:53:26.430Z,12.47
2018-04-16T07:54:36.663Z,12.41
2018-04-16T07:55:46.554Z,12.48
2018-04-16T07:56:56.708Z,12.44
2018-04-16T07:58:06.848Z,12.41
2018-04-16T07:59:17.019Z,12.39
2018-04-16T08:00:27.230Z,12.39
2018-04-16T08:01:37.475Z,12.45
2018-04-16T08:02:47.788Z,12.45
2018-04-16T08:03:57.972Z,12.52
2018-04-16T08:05:08.127Z,12.55
2018-04-16T08:06:18.346Z,12.5
2018-04-16T08:07:28.558Z,12.55
2018-04-16T08:08:38.734Z,12.53
2018-04-16T08:09:48.900Z,12.57
2018-04-16T08:10:59.075Z,12.56
2018-04-16T08:12:09.278Z,12.71
2018-04-16T08:13:19.431Z,12.6
2018-04-16T08:14:29.568Z,12.66
2018-04-16T08:15:39.728Z,12.74
2018-04-16T08:16:49.942Z,12.81
2018-04-16T08:18:00.135Z,12.8
2018-04-16T08:19:10.322Z,12.92
2018-04-16T08:20:20.519Z,12.82
2018-04-16T08:21:30.342Z,12.78
2018-04-16T08:22:40.506Z,12.84
2018-04-16T08:23:50.288Z,12.8
2018-04-16T08:25:00.466Z,12.95
2018-04-16T08:26:10.430Z,12.85
2018-04-16T08:27:20.572Z,12.95
2018-04-16T08:28:30.779Z,12.9
2018-04-16T08:29:40.959Z,13.06
2018-04-16T08:30:51.117Z,13.04
2018-04-16T08:32:01.285Z,13.04
2018-04-16T08:33:11.514Z,13.01
2018-04-16T08:34:21.817Z,13.06
2018-04-16T08:35:31.981Z,13.01
2018-04-16T08:36:42.208Z,13.01
2018-04-16T08:37:52.407Z,13.04
2018-04-16T08:39:02.552Z,13.13
2018-04-16T08:40:12.777Z,13.09
2018-04-16T08:41:23.109Z,13.11
2018-04-16T08:42:33.278Z,13.12
2018-04-16T08:43:43.485Z,13.13
2018-04-16T08:44:53.737Z,13.12
2018-04-16T08:46:03.902Z,13.12
2018-04-16T08:47:13.794Z,13.11
2018-04-16T08:48:24.014Z,13.16
2018-04-16T08:49:34.265Z,13.15
2018-04-16T08:50:44.408Z,13.11
2018-04-16T08:51:54.604Z,13.12
2018-04-16T08:53:04.865Z,13.15
2018-04-16T08:54:15.072Z,13.09
2018-04-16T08:55:24.959Z,13
2018-04-16T08:56:35.102Z,13.09
2018-04-16T08:57:45.233Z,13.06
2018-04-16T08:58:55.403Z,13.04
2018-04-16T09:00:05.393Z,13.15
2018-04-16T09:01:15.550Z,13.09
2018-04-16T09:02:25.447Z,13.04
2018-04-16T09:03:35.612Z,13.08
2018-04-16T09:04:45.741Z,13.13
2018-04-16T09:05:55.935Z,13.09
2018-04-16T09:07:05.823Z,13.16
2018-04-16T09:08:15.972Z,13.12
2018-04-16T09:09:26.161Z,13.08
2018-04-16T09:10:36.096Z,13.09
2018-04-16T09:11:46.230Z,13.11
2018-04-16T09:12:56.008Z,13.18
2018-04-16T09:14:06.226Z,13.22
2018-04-16T09:15:16.552Z,13.21
2018-04-16T09:16:26.741Z,13.26
2018-04-16T09:17:36.915Z,13.33
2018-04-16T09:18:47.164Z,13.27
2018-04-16T09:19:57.301Z,13.36
2018-04-16T09:21:07.475Z,13.34
2018-04-16T09:22:17.252Z,13.31
2018-04-16T09:23:27.382Z,13.31
2018-04-16T09:24:37.546Z,13.34
2018-04-16T09:25:47.700Z,13.37
2018-04-16T09:26:57.845Z,13.45
2018-04-16T09:28:08.100Z,13.41
2018-04-16T09:29:18.302Z,13.41
2018-04-16T09:30:28.485Z,13.51
2018-04-16T09:31:38.679Z,13.45
2018-04-16T09:32:48.943Z,13.56
2018-04-16T09:33:59.105Z,13.63
2018-04-16T09:35:09.244Z,13.58
2018-04-16T09:36:19.409Z,13.59
2018-04-16T09:37:29.574Z,13.55
2018-04-16T09:38:39.726Z,13.59
2018-04-16T09:39:49.879Z,13.55
2018-04-16T09:41:00.139Z,13.61
2018-04-16T09:42:10.034Z,13.63
2018-04-16T09:43:20.226Z,13.61
2018-04-16T09:44:30.405Z,13.59
2018-04-16T09:45:40.567Z,13.76
2018-04-16T09:46:50.777Z,13.7
2018-04-16T09:48:00.689Z,13.74
2018-04-16T09:49:10.575Z,13.73
2018-04-16T09:50:20.498Z,13.7
2018-04-16T09:51:30.755Z,13.76
2018-04-16T09:52:40.926Z,13.77
2018-04-16T09:53:51.102Z,13.79
2018-04-16T09:55:01.316Z,13.79
2018-04-16T09:56:11.446Z,13.82
2018-04-16T09:57:21.602Z,13.82
2018-04-16T09:58:31.556Z,13.84
2018-04-16T09:59:41.802Z,13.89
2018-04-16T10:00:52.091Z,13.94
2018-04-16T10:02:02.335Z,13.92
2018-04-16T10:03:12.489Z,13.88
2018-04-16T10:04:22.459Z,13.92
2018-04-16T10:05:32.712Z,14.03
2018-04-16T10:06:42.930Z,13.96
2018-04-16T10:07:53.253Z,14.06
2018-04-16T10:09:03.428Z,14.06
2018-04-16T10:10:13.720Z,14.14
2018-04-16T10:11:24.038Z,14.14
2018-04-16T10:12:34.240Z,14.21
2018-04-16T10:13:44.384Z,14.22
2018-04-16T10:14:54.556Z,14.19
2018-04-16T10:16:04.729Z,14.25
2018-04-16T10:17:14.954Z,14.26
2018-04-16T10:18:25.190Z,14.24
2018-04-16T10:19:35.475Z,14.43
2018-04-16T10:20:45.714Z,14.22
2018-04-16T10:21:55.899Z,14.24
2018-04-16T10:23:05.816Z,14.22
2018-04-16T10:24:15.956Z,14.22
2018-04-16T10:25:26.149Z,14.29
2018-04-16T10:26:36.372Z,14.26
2018-04-16T10:27:46.509Z,14.36
2018-04-16T10:28:56.742Z,14.26
2018-04-16T10:30:06.896Z,14.24
2018-04-16T10:31:17.130Z,14.32
2018-04-16T10:32:27.373Z,14.36
2018-04-16T10:33:37.644Z,14.39
2018-04-16T10:34:47.791Z,14.43
2018-04-16T10:35:57.938Z,14.43
2018-04-16T10:37:08.144Z,14.39
2018-04-16T10:38:18.465Z,14.43
2018-04-16T10:39:28.641Z,14.39
2018-04-16T10:40:38.850Z,14.36
2018-04-16T10:41:49.047Z,14.45
2018-04-16T10:42:59.254Z,14.37
2018-04-16T10:44:09.141Z,14.4
2018-04-16T10:45:19.354Z,14.48
2018-04-16T10:46:29.577Z,14.47
2018-04-16T10:47:39.886Z,14.39
2018-04-16T10:48:50.073Z,14.37
2018-04-16T10:50:00.241Z,14.45
2018-04-16T10:51:10.394Z,14.44
2018-04-16T10:52:20.319Z,14.5
2018-04-16T10:53:30.458Z,14.58
2018-04-16T10:54:40.635Z,14.52
2018-04-16T10:55:50.810Z,14.56
2018-04-16T10:57:01.006Z,14.58
2018-04-16T10:58:11.199Z,14.63
2018-04-16T10:59:21.376Z,14.62
2018-04-16T11:00:31.558Z,14.63
2018-04-16T11:01:41.691Z,14.69
2018-04-16T11:02:51.879Z,14.6
2018-04-16T11:04:02.057Z,14.75
2018-04-16T11:05:12.252Z,14.77
2018-04-16T11:06:22.542Z,14.81
2018-04-16T11:07:32.720Z,14.84
2018-04-16T11:08:42.740Z,14.83
2018-04-16T11:09:52.964Z,14.93
2018-04-16T11:11:04.098Z,14.99
2018-04-16T11:12:14.501Z,15.08
2018-04-16T11:13:24.718Z,15.15
2018-04-16T11:14:34.931Z,15.2
2018-04-16T11:15:45.116Z,15.23
2018-04-16T11:16:55.265Z,15.23
2018-04-16T11:18:05.573Z,15.3
2018-04-16T11:19:15.955Z,15.23
2018-04-16T11:20:26.117Z,15.24
2018-04-16T11:21:36.292Z,15.24
2018-04-16T11:22:46.531Z,15.27
2018-04-16T11:23:56.766Z,15.39
2018-04-16T11:25:07.014Z,15.35
2018-04-16T11:26:17.171Z,15.38
2018-04-16T11:27:27.384Z,15.38
2018-04-16T11:28:37.525Z,15.39
2018-04-16T11:29:47.754Z,15.38
2018-04-16T11:30:58.014Z,15.3
2018-04-16T11:32:07.927Z,15.35
2018-04-16T11:33:18.093Z,15.36
2018-04-16T11:34:28.274Z,15.4
2018-04-16T11:35:38.417Z,15.4
2018-04-16T11:36:48.668Z,15.42
2018-04-16T11:37:59.046Z,15.4
2018-04-16T11:39:09.220Z,15.38
2018-04-16T11:40:19.152Z,15.39
2018-04-16T11:41:29.435Z,15.42
2018-04-16T11:42:39.592Z,15.5
2018-04-16T11:43:49.758Z,15.57
2018-04-16T11:44:59.919Z,15.57
2018-04-16T11:46:10.083Z,15.55
2018-04-16T11:47:20.267Z,15.57
2018-04-16T11:48:30.462Z,15.53
2018-04-16T11:49:40.616Z,15.63
2018-04-16T11:50:50.803Z,15.58
2018-04-16T11:52:01.013Z,15.61
2018-04-16T11:53:11.215Z,15.57
2018-04-16T11:54:21.474Z,15.63
2018-04-16T11:55:31.740Z,15.69
2018-04-16T11:56:42.001Z,15.7
2018-04-16T11:57:52.210Z,15.72
2018-04-16T11:59:02.418Z,15.7
2018-04-16T12:00:12.596Z,15.68
2018-04-16T12:01:22.834Z,15.72
2018-04-16T12:02:33.033Z,15.63
2018-04-16T12:03:43.197Z,15.75
2018-04-16T12:04:53.473Z,15.68
2018-04-16T12:06:03.647Z,15.69
2018-04-16T12:07:13.959Z,15.75
2018-04-16T12:08:24.142Z,15.87
2018-04-16T12:09:34.371Z,15.92
2018-04-16T12:10:44.534Z,16.01
2018-04-16T12:11:54.746Z,16.02
2018-04-16T12:13:05.021Z,16.06
2018-04-16T12:14:15.204Z,16.09
2018-04-16T12:15:25.365Z,16.09
2018-04-16T12:16:35.584Z,16.1
2018-04-16T12:17:45.968Z,16.11
2018-04-16T12:18:56.160Z,16.09
2018-04-16T12:20:06.364Z,16.17
2018-04-16T12:21:16.604Z,16.16
2018-04-16T12:22:26.560Z,16.09
2018-04-16T12:23:36.719Z,16.19
2018-04-16T12:24:46.931Z,16.16
2018-04-16T12:25:57.129Z,16.1
2018-04-16T12:27:07.290Z,16.19
2018-04-16T12:28:17.457Z,16.11
2018-04-16T12:29:27.649Z,16.11
2018-04-16T12:30:37.809Z,16.04
2018-04-16T12:31:47.966Z,16.17
2018-04-16T12:32:58.131Z,16.19
2018-04-16T12:34:08.539Z,16.25
2018-04-16T12:35:18.718Z,16.2
2018-04-16T12:36:28.934Z,16.28
2018-04-16T12:37:39.234Z,16.2
2018-04-16T12:38:49.390Z,16.25
2018-04-16T12:39:59.558Z,16.17
2018-04-16T12:41:09.842Z,16.16
2018-04-16T12:42:20.036Z,16.2
2018-04-16T12:43:30.291Z,16.19
2018-04-16T12:44:40.517Z,16.25
2018-04-16T12:45:50.770Z,16.25
2018-04-16T12:47:00.918Z,16.32
2018-04-16T12:48:11.292Z,16.35
2018-04-16T12:49:21.446Z,16.29
2018-04-16T12:50:31.606Z,16.42
2018-04-16T12:51:41.766Z,16.47
2018-04-16T12:52:51.982Z,16.5
2018-04-16T12:54:02.132Z,16.49
2018-04-16T12:55:12.299Z,16.49
2018-04-16T12:56:22.455Z,16.47
2018-04-16T12:57:32.604Z,16.51
2018-04-16T12:58:42.781Z,16.56
2018-04-16T12:59:52.963Z,16.5
2018-04-16T13:01:03.123Z,16.44
2018-04-16T13:02:13.339Z,16.51
2018-04-16T13:03:23.615Z,16.51
2018-04-16T13:04:33.804Z,16.53
2018-04-16T13:05:44.090Z,16.53
2018-04-16T13:06:54.314Z,16.56
2018-04-16T13:08:04.113Z,16.59
2018-04-16T13:09:14.229Z,16.47
2018-04-16T13:10:24.035Z,16.53
2018-04-16T13:11:34.212Z,16.5
2018-04-16T13:12:44.076Z,16.59
2018-04-16T13:13:54.340Z,16.65
2018-04-16T13:15:04.479Z,16.66
2018-04-16T13:16:14.673Z,16.64
2018-04-16T13:17:25.862Z,16.74
2018-04-16T13:18:36.070Z,16.75
2018-04-16T13:19:45.865Z,16.79
2018-04-16T13:20:56.004Z,16.89
2018-04-16T13:22:06.235Z,16.89
2018-04-16T13:23:16.481Z,16.99
2018-04-16T13:24:26.407Z,16.98
2018-04-16T13:25:36.560Z,17.11
2018-04-16T13:26:46.747Z,17.17
2018-04-16T13:27:56.948Z,17.31
2018-04-16T13:29:07.107Z,17.28
2018-04-16T13:30:17.299Z,17.31
2018-04-16T13:31:27.468Z,17.39
2018-04-16T13:32:37.632Z,17.49
2018-04-16T13:33:47.840Z,17.61
2018-04-16T13:34:58.047Z,17.62
2018-04-16T13:36:08.221Z,17.77
2018-04-16T13:37:18.397Z,17.83
2018-04-16T13:38:28.578Z,17.87
2018-04-16T13:39:38.741Z,17.95
2018-04-16T13:40:48.931Z,17.97
2018-04-16T13:41:59.095Z,17.95
2018-04-16T13:43:09.397Z,18.01
2018-04-16T13:44:19.551Z,17.95
2018-04-16T13:45:29.746Z,18
2018-04-16T13:46:39.922Z,17.86
2018-04-16T13:47:50.079Z,17.82
2018-04-16T13:48:59.983Z,17.86
2018-04-16T13:50:10.237Z,17.86
2018-04-16T13:51:20.449Z,17.75
2018-04-16T13:52:30.658Z,17.7
2018-04-16T13:53:40.830Z,17.77
2018-04-16T13:54:51.010Z,17.76
2018-04-16T13:56:01.215Z,17.76
2018-04-16T13:57:11.411Z,17.72
2018-04-16T13:58:21.613Z,17.73
2018-04-16T13:59:31.806Z,17.61
2018-04-16T14:00:42.017Z,17.62
2018-04-16T14:01:52.163Z,17.61
2018-04-16T14:03:02.383Z,17.55
2018-04-16T14:04:12.569Z,17.49
2018-04-16T14:05:22.176Z,17.62
2018-04-16T14:06:31.996Z,17.5
2018-04-16T14:07:42.248Z,17.58
2018-04-16T14:08:52.423Z,17.61
2018-04-16T14:10:02.632Z,17.64
2018-04-16T14:11:12.830Z,17.61
2018-04-16T14:12:22.987Z,17.5
2018-04-16T14:13:33.160Z,17.5
2018-04-16T14:14:43.436Z,17.45
2018-04-16T14:15:53.617Z,17.43
2018-04-16T14:17:03.778Z,17.4
2018-04-16T14:18:13.956Z,17.28
2018-04-16T14:19:24.253Z,17.27
2018-04-16T14:20:34.480Z,17.28
2018-04-16T14:21:44.661Z,17.2
2018-04-16T14:22:54.847Z,17.3
2018-04-16T14:24:05.016Z,17.31
2018-04-16T14:25:15.273Z,17.3
2018-04-16T14:26:25.498Z,17.3
2018-04-16T14:27:35.663Z,17.28
2018-04-16T14:28:45.879Z,17.24
2018-04-16T14:29:56.116Z,17.28
2018-04-16T14:31:06.421Z,17.19
2018-04-16T14:32:16.651Z,17.19
2018-04-16T14:33:26.880Z,17.21
2018-04-16T14:34:37.060Z,17.12
2018-04-16T14:35:47.282Z,17.17
2018-04-16T14:36:57.483Z,17.11
2018-04-16T14:38:07.739Z,17.12
2018-04-16T14:39:17.963Z,17.14
2018-04-16T14:40:28.187Z,17.09
2018-04-16T14:41:38.341Z,17.16
2018-04-16T14:42:48.651Z,17.02
2018-04-16T14:43:58.829Z,17.06
2018-04-16T14:45:08.998Z,17.01
2018-04-16T14:46:19.220Z,17.01
2018-04-16T14:47:29.473Z,16.99
2018-04-16T14:48:39.690Z,17.05
2018-04-16T14:49:49.919Z,17.08
2018-04-16T14:51:00.128Z,16.99
2018-04-16T14:52:10.442Z,17.09
2018-04-16T14:53:20.351Z,17.05
2018-04-16T14:54:30.552Z,17.09
2018-04-16T14:55:40.764Z,16.99
2018-04-16T14:56:50.766Z,16.98
2018-04-16T14:58:00.928Z,16.96
2018-04-16T14:59:11.249Z,16.96
2018-04-16T15:00:21.489Z,16.87
2018-04-16T15:01:31.681Z,16.76
2018-04-16T15:02:41.851Z,16.83
2018-04-16T15:03:52.092Z,16.89
2018-04-16T15:05:02.328Z,16.86
2018-04-16T15:06:12.545Z,16.89
2018-04-16T15:07:22.748Z,16.83